Time;durP1;ratioP1;P1;durP2;ratioP2;P2;SDS_P1;SDS_P2;PMS_P1;PMS_P2;Temp;Humidity;BMP_temperature;BMP_pressure;BME280_temperature;BME280_humidity;BME280_pressure;Samples;Min_cycle;Max_cycle;Signal;HPM_P1;HPM_P2
2022/05/02 00:00:46;;;;;;;6.18;3.65;;;11.80;99.90;;;;;;5075699;28;20099;-64
2022/05/02 00:03:12;;;;;;;10.25;4.32;;;11.90;99.90;;;;;;5075189;28;20490;-65
2022/05/02 00:05:39;;;;;;;10.40;3.85;;;11.90;99.90;;;;;;5075380;28;20028;-64
2022/05/02 00:08:05;;;;;;;7.13;3.88;;;11.90;99.90;;;;;;5093113;28;20062;-64
2022/05/02 00:10:32;;;;;;;8.73;4.53;;;11.90;99.90;;;;;;5092969;28;20069;-64
2022/05/02 00:12:58;;;;;;;7.50;4.45;;;11.90;99.90;;;;;;5074829;28;20027;-65
2022/05/02 00:15:24;;;;;;;11.35;4.65;;;11.90;99.90;;;;;;5074845;28;20016;-65
2022/05/02 00:17:59;;;;;;;10.00;4.70;;;11.70;99.90;;;;;;5074981;28;20073;-66
2022/05/02 00:20:30;;;;;;;8.65;4.55;;;11.60;99.90;;;;;;5093558;28;20012;-66
2022/05/02 00:22:58;;;;;;;14.48;4.88;;;11.50;99.90;;;;;;5096546;28;20103;-66
2022/05/02 00:25:24;;;;;;;8.75;4.20;;;11.50;99.90;;;;;;5079085;28;20039;-64
2022/05/02 00:27:50;;;;;;;5.70;4.40;;;11.40;99.90;;;;;;5097312;28;20027;-64
2022/05/02 00:30:16;;;;;;;7.13;4.57;;;11.50;99.90;;;;;;5097213;28;20020;-65
2022/05/02 00:32:43;;;;;;;8.10;4.53;;;11.50;99.90;;;;;;5079429;28;20025;-65
2022/05/02 00:35:09;;;;;;;10.10;4.75;;;11.40;99.90;;;;;;5097042;28;20055;-65
2022/05/02 00:37:37;;;;;;;12.63;4.45;;;11.40;99.90;;;;;;5097197;28;20055;-65
2022/05/02 00:40:03;;;;;;;9.60;4.28;;;11.30;99.90;;;;;;5079845;28;20126;-64
2022/05/02 00:42:29;;;;;;;6.82;3.95;;;11.30;99.90;;;;;;5097734;28;20103;-64
2022/05/02 00:44:55;;;;;;;8.05;4.22;;;11.20;99.90;;;;;;5096904;28;20055;-65
2022/05/02 00:47:20;;;;;;;10.18;4.40;;;11.20;99.90;;;;;;5078649;28;20036;-65
2022/05/02 00:49:48;;;;;;;7.38;4.32;;;11.10;99.90;;;;;;5097117;28;20085;-65
2022/05/02 00:52:15;;;;;;;8.68;4.22;;;11.10;99.90;;;;;;5078367;28;20020;-65
2022/05/02 00:54:43;;;;;;;5.82;3.90;;;11.00;99.90;;;;;;5078467;28;20023;-64
2022/05/02 00:57:12;;;;;;;12.98;3.70;;;11.00;99.90;;;;;;5078460;28;20032;-65
2022/05/02 00:59:38;;;;;;;9.27;3.55;;;10.90;99.90;;;;;;5078840;28;20023;-65
2022/05/02 01:02:05;;;;;;;7.88;4.38;;;10.80;99.90;;;;;;5096819;28;20032;-65
2022/05/02 01:04:31;;;;;;;6.45;4.22;;;10.80;99.90;;;;;;5096536;28;20036;-65
2022/05/02 01:07:10;;;;;;;8.38;4.35;;;10.80;99.90;;;;;;5078995;28;20458;-65
2022/05/02 01:09:41;;;;;;;8.35;4.75;;;10.80;99.90;;;;;;5078398;28;20024;-65
2022/05/02 01:12:16;;;;;;;8.40;4.30;;;10.80;99.90;;;;;;5096299;28;20362;-65
2022/05/02 01:14:43;;;;;;;12.65;3.83;;;10.80;99.90;;;;;;5078063;28;20036;-66
2022/05/02 01:17:09;;;;;;;6.97;4.18;;;10.70;99.90;;;;;;5078193;28;20028;-65
2022/05/02 01:19:35;;;;;;;5.18;4.03;;;10.70;99.90;;;;;;5078027;28;20020;-65
2022/05/02 01:22:02;;;;;;;5.85;3.53;;;10.60;99.90;;;;;;5078285;28;20034;-65
2022/05/02 01:24:42;;;;;;;7.88;4.43;;;10.60;99.90;;;;;;5078047;28;20035;-67
2022/05/02 01:27:09;;;;;;;9.32;4.80;;;10.60;99.90;;;;;;5077890;28;20024;-65
2022/05/02 01:29:37;;;;;;;8.30;4.05;;;10.60;99.90;;;;;;5078288;28;20024;-66
2022/05/02 01:32:08;;;;;;;7.93;5.03;;;10.60;99.90;;;;;;5077145;28;20409;-65
2022/05/02 01:34:34;;;;;;;11.07;4.22;;;10.60;99.90;;;;;;5096078;28;20031;-65
2022/05/02 01:37:04;;;;;;;12.95;4.07;;;10.60;99.90;;;;;;5077722;28;20513;-65
2022/05/02 01:39:30;;;;;;;8.50;4.18;;;10.60;99.90;;;;;;5096089;28;20016;-66
2022/05/02 01:42:00;;;;;;;6.28;4.15;;;10.60;99.90;;;;;;5095763;28;20031;-66
2022/05/02 01:44:25;;;;;;;7.43;4.57;;;10.60;99.90;;;;;;5095794;28;20027;-65
2022/05/02 01:46:52;;;;;;;5.97;3.80;;;10.60;99.90;;;;;;5095761;28;20042;-65
2022/05/02 01:49:17;;;;;;;15.40;5.43;;;10.60;99.90;;;;;;5095644;28;20101;-65
2022/05/02 01:51:43;;;;;;;14.77;4.53;;;10.60;99.90;;;;;;5095309;28;20489;-65
2022/05/02 01:54:09;;;;;;;9.27;4.45;;;10.60;99.90;;;;;;5077551;28;20020;-65
2022/05/02 01:56:35;;;;;;;6.85;4.13;;;10.50;99.90;;;;;;5077471;28;20016;-65
2022/05/02 01:59:01;;;;;;;10.60;4.10;;;10.50;99.90;;;;;;5095636;28;20031;-65
2022/05/02 02:01:27;;;;;;;8.57;4.35;;;10.50;99.90;;;;;;5077350;28;20059;-65
2022/05/02 02:03:52;;;;;;;9.30;3.97;;;10.40;99.90;;;;;;5077196;28;20024;-65
2022/05/02 02:06:18;;;;;;;6.82;4.25;;;10.40;99.90;;;;;;5077170;28;20036;-65
2022/05/02 02:08:44;;;;;;;7.20;4.22;;;10.40;99.90;;;;;;5077014;28;20035;-65
2022/05/02 02:11:11;;;;;;;10.63;4.68;;;10.30;99.90;;;;;;5077192;28;20024;-65
2022/05/02 02:13:38;;;;;;;6.97;4.40;;;10.30;99.90;;;;;;5095492;28;20020;-65
2022/05/02 02:16:09;;;;;;;9.52;4.63;;;10.30;99.90;;;;;;5095350;28;20023;-65
2022/05/02 02:18:36;;;;;;;14.15;4.53;;;10.30;99.90;;;;;;5078010;28;20031;-65
2022/05/02 02:21:02;;;;;;;5.78;4.82;;;10.30;99.90;;;;;;5095036;28;20034;-65
2022/05/02 02:23:28;;;;;;;8.32;4.90;;;10.30;99.90;;;;;;5094959;28;20024;-65
2022/05/02 02:25:54;;;;;;;7.70;5.15;;;10.40;99.90;;;;;;5077075;28;20020;-65
2022/05/02 02:28:20;;;;;;;7.35;4.20;;;10.50;99.90;;;;;;5094997;28;20058;-65
2022/05/02 02:30:46;;;;;;;7.63;4.75;;;10.40;99.90;;;;;;5076333;28;20028;-64
2022/05/02 02:33:12;;;;;;;13.48;4.97;;;10.50;99.90;;;;;;5076589;28;20031;-65
2022/05/02 02:35:38;;;;;;;6.70;4.10;;;10.50;99.90;;;;;;5077252;28;20024;-65
2022/05/02 02:38:04;;;;;;;10.15;4.15;;;10.50;99.90;;;;;;5076724;28;20050;-66
2022/05/02 02:40:31;;;;;;;16.77;7.43;;;10.50;99.90;;;;;;5077251;28;20178;-66
2022/05/02 02:42:56;;;;;;;9.32;5.15;;;10.50;99.90;;;;;;5094520;28;20020;-65
2022/05/02 02:45:22;;;;;;;8.95;4.75;;;10.50;99.90;;;;;;5093987;28;20023;-65
2022/05/02 02:47:48;;;;;;;10.88;5.22;;;10.50;99.90;;;;;;5094755;28;20024;-65
2022/05/02 02:50:14;;;;;;;8.57;4.22;;;10.40;99.90;;;;;;5076374;28;20024;-65
2022/05/02 02:52:39;;;;;;;11.38;5.63;;;10.30;99.90;;;;;;5076218;28;20050;-64
2022/05/02 02:55:05;;;;;;;8.35;4.97;;;10.30;99.90;;;;;;5094271;28;20466;-64
2022/05/02 02:57:31;;;;;;;7.20;4.72;;;10.20;99.90;;;;;;5076063;28;20032;-64
2022/05/02 02:59:57;;;;;;;7.60;3.95;;;10.20;99.90;;;;;;5076191;28;20024;-65
2022/05/02 03:02:22;;;;;;;8.95;4.35;;;10.10;99.90;;;;;;5094189;28;20031;-67
2022/05/02 03:07:33;;;;;;;6.60;4.47;;;9.90;99.90;;;;;;5094388;28;20054;-66
2022/05/02 03:09:58;;;;;;;5.10;4.30;;;9.80;99.90;;;;;;5094019;28;20028;-66
2022/05/02 03:12:25;;;;;;;6.05;4.28;;;9.70;99.90;;;;;;5075360;28;20034;-65
2022/05/02 03:14:51;;;;;;;10.25;4.25;;;9.60;99.90;;;;;;5093867;28;20024;-65
2022/05/02 03:17:16;;;;;;;8.95;4.50;;;9.50;99.90;;;;;;5093811;28;20117;-65
2022/05/02 03:19:42;;;;;;;7.15;3.83;;;9.40;99.90;;;;;;5094296;28;20028;-65
2022/05/02 03:22:08;;;;;;;6.43;4.28;;;9.40;99.90;;;;;;5075593;28;20024;-65
2022/05/02 03:24:34;;;;;;;11.60;4.45;;;9.30;99.90;;;;;;5075701;28;20035;-65
2022/05/02 03:26:59;;;;;;;9.75;4.85;;;9.20;99.90;;;;;;5075492;28;20028;-65
2022/05/02 03:29:25;;;;;;;13.00;4.40;;;9.20;99.90;;;;;;5075551;28;20026;-65
2022/05/02 03:31:51;;;;;;;7.63;5.10;;;9.10;99.90;;;;;;5075711;28;20031;-65
2022/05/02 03:34:17;;;;;;;10.52;4.65;;;9.00;99.90;;;;;;5075771;28;20028;-65
2022/05/02 03:36:42;;;;;;;6.40;4.20;;;8.90;99.90;;;;;;5093957;28;20023;-64
2022/05/02 03:39:09;;;;;;;6.10;4.18;;;8.90;99.90;;;;;;5075695;28;20028;-65
2022/05/02 03:41:34;;;;;;;9.73;4.18;;;8.90;99.90;;;;;;5093530;28;20073;-64
2022/05/02 03:44:00;;;;;;;9.70;3.97;;;8.90;99.90;;;;;;5093414;28;20032;-65
2022/05/02 03:46:26;;;;;;;6.10;4.00;;;8.80;99.90;;;;;;5093645;28;20525;-64
2022/05/02 03:48:51;;;;;;;6.70;4.28;;;8.80;99.90;;;;;;5075239;28;20020;-64
2022/05/02 03:51:18;;;;;;;11.95;4.57;;;8.70;99.90;;;;;;5074953;28;20024;-65
2022/05/02 03:53:44;;;;;;;8.60;4.35;;;8.60;99.90;;;;;;5093181;28;20031;-65
2022/05/02 03:56:09;;;;;;;8.63;4.60;;;8.60;99.90;;;;;;5092950;28;20021;-66
2022/05/02 03:58:35;;;;;;;10.65;4.43;;;8.50;99.90;;;;;;5093297;28;20020;-65
2022/05/02 04:01:02;;;;;;;6.78;4.45;;;8.50;99.90;;;;;;5093263;28;20028;-65
2022/05/02 04:03:27;;;;;;;7.25;3.72;;;8.40;99.90;;;;;;5074868;28;20024;-65
2022/05/02 04:05:53;;;;;;;7.15;4.28;;;8.40;99.90;;;;;;5075303;28;20032;-65
2022/05/02 04:08:18;;;;;;;7.15;3.63;;;8.50;99.90;;;;;;5092976;28;20380;-65
2022/05/02 04:10:44;;;;;;;8.63;4.35;;;8.40;99.90;;;;;;5075465;28;20024;-65
2022/05/02 04:13:10;;;;;;;7.32;5.10;;;8.40;99.90;;;;;;5093307;28;20035;-65
2022/05/02 04:15:36;;;;;;;8.32;4.85;;;8.40;99.90;;;;;;5074864;28;20021;-65
2022/05/02 04:18:02;;;;;;;8.30;4.80;;;8.40;99.90;;;;;;5075077;28;20020;-65
2022/05/02 04:20:28;;;;;;;6.95;4.35;;;8.40;99.90;;;;;;5092864;28;20070;-65
2022/05/02 04:22:53;;;;;;;7.32;4.63;;;8.40;99.90;;;;;;5074731;28;20403;-65
2022/05/02 04:25:19;;;;;;;9.30;4.22;;;8.40;99.90;;;;;;5075308;28;20115;-65
2022/05/02 04:27:45;;;;;;;10.38;4.63;;;8.40;99.90;;;;;;5075885;28;20028;-65
2022/05/02 04:30:11;;;;;;;9.43;4.57;;;8.40;99.90;;;;;;5074854;28;20367;-65
2022/05/02 04:32:37;;;;;;;7.85;4.88;;;8.50;99.90;;;;;;5092978;28;20020;-65
2022/05/02 04:35:04;;;;;;;9.93;4.88;;;8.40;99.90;;;;;;5093551;28;20481;-65
2022/05/02 04:37:30;;;;;;;12.55;5.07;;;8.40;99.90;;;;;;5075143;28;20103;-65
2022/05/02 04:39:55;;;;;;;7.43;4.10;;;8.40;99.90;;;;;;5075391;28;20177;-65
2022/05/02 04:42:21;;;;;;;9.57;5.13;;;8.40;99.90;;;;;;5075033;28;20020;-65
2022/05/02 04:44:47;;;;;;;8.73;4.80;;;8.50;99.90;;;;;;5075268;28;20024;-65
2022/05/02 04:47:12;;;;;;;8.93;4.18;;;8.70;99.90;;;;;;5093023;28;20031;-65
2022/05/02 04:49:38;;;;;;;7.10;4.50;;;8.90;99.90;;;;;;5075135;28;20026;-65
2022/05/02 04:52:04;;;;;;;9.98;4.55;;;9.10;99.90;;;;;;5093212;28;20028;-65
2022/05/02 04:54:29;;;;;;;8.40;4.63;;;9.30;99.90;;;;;;5075281;28;20470;-65
2022/05/02 04:56:55;;;;;;;8.00;4.47;;;9.40;99.90;;;;;;5074921;28;20027;-65
2022/05/02 04:59:21;;;;;;;9.52;4.25;;;9.60;99.90;;;;;;5075767;28;20024;-65
2022/05/02 05:01:46;;;;;;;12.73;4.68;;;9.80;99.90;;;;;;5074919;28;20024;-65
2022/05/02 05:04:12;;;;;;;7.95;4.45;;;10.00;99.90;;;;;;5075006;28;20052;-65
2022/05/02 05:06:38;;;;;;;7.40;4.30;;;10.10;99.90;;;;;;5074829;28;20120;-65
2022/05/02 05:09:04;;;;;;;7.03;3.85;;;10.20;99.90;;;;;;5078363;28;20024;-65
2022/05/02 05:12:06;;;;;;;8.40;4.20;;;10.30;99.90;;;;;;5079238;28;20070;-65
2022/05/02 05:17:49;;;;;;;9.50;4.32;;;10.80;99.90;;;;;;5096564;28;20034;-65
2022/05/02 05:20:43;;;;;;;9.00;4.65;;;11.10;99.90;;;;;;5079252;28;20114;-65
2022/05/02 05:23:27;;;;;;;5.40;3.90;;;11.20;99.90;;;;;;5096599;28;20024;-65
2022/05/02 05:26:48;;;;;;;6.97;4.00;;;11.60;99.90;;;;;;5078356;28;20051;-65
2022/05/02 05:29:20;;;;;;;11.40;5.30;;;12.10;99.90;;;;;;5078842;28;20032;-65
2022/05/02 05:32:05;;;;;;;;;;;12.30;99.90;;;;;;5096593;28;20032;-65
2022/05/02 05:34:50;;;;;;;6.10;4.00;;;12.60;99.90;;;;;;5096212;28;19908;-64
2022/05/02 05:37:44;;;;;;;13.80;4.75;;;12.80;99.90;;;;;;5078108;28;20031;-64
2022/05/02 05:40:19;;;;;;;7.63;4.30;;;13.20;99.90;;;;;;5077985;28;20092;-64
2022/05/02 05:43:06;;;;;;;9.75;4.97;;;13.70;99.90;;;;;;5077850;28;20107;-66
2022/05/02 05:45:56;;;;;;;10.00;4.45;;;14.20;99.90;;;;;;5095948;28;20035;-64
2022/05/02 05:48:59;;;;;;;7.82;4.15;;;14.80;99.90;;;;;;5077716;28;20028;-64
2022/05/02 05:51:38;;;;;;;7.28;4.72;;;15.40;99.90;;;;;;5078269;28;20032;-64
2022/05/02 05:57:40;;;;;;;11.05;3.90;;;16.50;99.90;;;;;;5095856;28;20055;-64
2022/05/02 06:00:11;;;;;;;11.07;4.25;;;17.10;99.90;;;;;;5096146;28;20099;-67
2022/05/02 06:03:07;;;;;;;5.07;4.50;;;17.50;99.90;;;;;;5095810;28;20024;-64
2022/05/02 06:05:40;;;;;;;9.73;4.57;;;17.80;99.90;;;;;;5096009;28;20036;-65
2022/05/02 06:08:10;;;;;;;10.93;5.15;;;18.30;99.90;;;;;;5095745;28;20432;-61
2022/05/02 06:10:36;;;;;;;9.50;6.15;;;18.60;99.90;;;;;;5077664;28;20058;-63
2022/05/02 06:13:03;;;;;;;8.73;4.90;;;18.90;99.90;;;;;;5077648;28;20031;-62
2022/05/02 06:18:29;;;;;;;9.02;4.80;;;19.90;99.90;;;;;;5095639;28;20111;-64
2022/05/02 06:21:06;;;;;;;9.35;5.15;;;20.30;99.90;;;;;;5076660;28;20028;-64
2022/05/02 06:23:36;;;;;;;9.93;4.85;;;20.90;99.90;;;;;;5095318;28;20107;-65
2022/05/02 06:26:02;;;;;;;8.93;4.70;;;21.00;99.90;;;;;;5077195;28;20028;-64
2022/05/02 06:28:38;;;;;;;9.30;4.75;;;21.30;99.90;;;;;;5077079;28;20033;-64
2022/05/02 06:31:09;;;;;;;7.22;4.70;;;21.90;99.90;;;;;;5095257;28;20020;-64
2022/05/02 06:33:35;;;;;;;8.85;4.55;;;22.30;99.90;;;;;;5095505;28;20024;-64
2022/05/02 06:36:25;;;;;;;8.18;5.75;;;22.50;99.90;;;;;;5095039;28;20035;-64
2022/05/02 06:39:10;;;;;;;6.85;4.97;;;21.80;99.90;;;;;;5095058;28;20111;-64
2022/05/02 06:41:49;;;;;;;6.78;4.60;;;21.50;99.90;;;;;;5095194;28;20020;-64
2022/05/02 06:44:33;;;;;;;10.00;5.18;;;21.60;99.90;;;;;;5077678;28;20024;-64
2022/05/02 06:47:27;;;;;;;8.77;5.03;;;22.00;99.90;;;;;;5077880;28;20106;-64
2022/05/02 06:49:57;;;;;;;5.47;4.72;;;22.20;99.70;;;;;;5076721;28;20503;-65
2022/05/02 06:52:32;;;;;;;7.65;5.35;;;22.20;99.10;;;;;;5077108;28;20030;-64
2022/05/02 06:55:24;;;;;;;8.05;4.28;;;22.30;98.50;;;;;;5094811;28;20028;-64
2022/05/02 06:58:21;;;;;;;7.05;4.57;;;22.50;99.70;;;;;;5077567;28;20020;-65
2022/05/02 07:00:57;;;;;;;6.80;3.85;;;23.60;98.50;;;;;;5077101;28;20111;-66
2022/05/02 07:03:37;;;;;;;9.00;3.90;;;24.10;95.90;;;;;;5076496;28;20474;-65
2022/05/02 07:06:09;;;;;;;14.32;5.45;;;24.80;93.90;;;;;;5076192;28;20177;-67
2022/05/02 07:08:57;;;;;;;7.57;5.07;;;24.40;92.50;;;;;;5077090;28;20046;-64
2022/05/02 07:11:37;;;;;;;9.90;5.25;;;24.10;92.50;;;;;;5094734;28;20024;-64
2022/05/02 07:14:13;;;;;;;5.32;3.85;;;24.50;92.20;;;;;;5094344;28;20415;-64
2022/05/02 07:16:48;;;;;;;10.27;5.25;;;25.30;91.50;;;;;;5076543;28;20025;-65
2022/05/02 07:19:48;;;;;;;8.85;4.93;;;25.70;88.80;;;;;;5094455;28;20028;-64
2022/05/02 07:22:27;;;;;;;6.50;4.80;;;25.20;86.60;;;;;;5076217;28;20549;-64
2022/05/02 07:25:01;;;;;;;7.22;3.97;;;25.30;90.50;;;;;;5094291;28;20024;-65
2022/05/02 07:27:53;;;;;;;5.03;3.75;;;26.00;88.40;;;;;;5076485;28;20145;-64
2022/05/02 07:30:23;;;;;;;9.50;4.93;;;26.60;89.50;;;;;;5075865;28;20161;-67
2022/05/02 07:32:53;;;;;;;5.03;3.80;;;27.60;83.00;;;;;;5076020;28;20048;-67
2022/05/02 07:35:24;;;;;;;7.75;4.43;;;27.70;86.10;;;;;;5094881;28;20023;-67
2022/05/02 07:37:51;;;;;;;6.63;4.00;;;28.30;81.60;;;;;;5076277;28;20024;-67
2022/05/02 07:40:29;;;;;;;6.53;4.30;;;28.80;79.60;;;;;;5076365;28;20042;-68
2022/05/02 07:42:56;;;;;;;5.88;4.75;;;29.70;74.40;;;;;;5076862;28;20115;-66
2022/05/02 07:45:29;;;;;;;10.90;5.00;;;29.60;71.20;;;;;;5076861;28;20034;-69
2022/05/02 07:48:00;;;;;;;6.53;4.70;;;28.50;69.40;;;;;;5076610;28;20024;-65
2022/05/02 07:50:27;;;;;;;6.32;4.15;;;27.30;71.60;;;;;;5077148;28;20051;-67
2022/05/02 07:52:55;;;;;;;6.93;4.93;;;26.90;75.20;;;;;;5077343;28;20024;-67
2022/05/02 07:55:22;;;;;;;5.93;3.90;;;27.20;71.60;;;;;;5077754;28;20024;-68
2022/05/02 07:57:49;;;;;;;6.72;4.85;;;27.00;77.80;;;;;;5075879;28;20020;-69
2022/05/02 08:00:16;;;;;;;8.93;4.40;;;27.80;71.40;;;;;;5076100;28;20063;-66
2022/05/02 08:02:43;;;;;;;7.50;4.38;;;27.50;72.30;;;;;;5077948;28;20073;-70
2022/05/02 08:05:09;;;;;;;7.28;4.80;;;27.90;71.10;;;;;;5078194;28;20036;-68
2022/05/02 08:07:40;;;;;;;7.45;4.53;;;28.00;69.70;;;;;;5096975;28;20052;-68
2022/05/02 08:10:43;;;;;;;9.25;4.50;;;29.10;71.00;;;;;;5078965;28;20609;-67
2022/05/02 08:13:37;;;;;;;8.77;4.60;;;29.90;69.10;;;;;;5077839;28;20027;-71
2022/05/02 08:16:09;;;;;;;9.63;4.25;;;30.30;63.80;;;;;;5095821;28;20024;-68
2022/05/02 08:18:57;;;;;;;9.65;5.20;;;30.20;64.20;;;;;;5076821;28;20020;-68
2022/05/02 08:21:45;;;;;;;9.13;5.13;;;30.50;62.60;;;;;;5065265;28;20028;-69
2022/05/02 08:27:26;;;;;;;7.05;4.68;;;30.60;61.20;;;;;;5095404;28;20038;-72
2022/05/02 08:30:22;;;;;;;7.03;4.63;;;30.30;61.80;;;;;;5095402;28;20031;-69
2022/05/02 08:33:05;;;;;;;11.10;4.47;;;29.50;61.80;;;;;;5076217;28;20032;-67
2022/05/02 08:36:08;;;;;;;6.03;4.30;;;30.40;64.80;;;;;;5076642;28;20032;-69
2022/05/02 08:38:45;;;;;;;6.43;4.80;;;31.60;62.50;;;;;;5076856;28;20115;-68
2022/05/02 08:41:23;;;;;;;7.05;4.88;;;31.50;59.20;;;;;;5077630;28;20058;-69
2022/05/02 08:44:25;;;;;;;7.80;4.65;;;30.50;61.20;;;;;;5097377;28;20031;-68
2022/05/02 08:47:00;;;;;;;10.25;5.25;;;31.40;59.00;;;;;;5081712;28;20057;-68
2022/05/02 08:49:39;;;;;;;4.97;3.88;;;31.50;58.60;;;;;;5097912;28;20024;-68
2022/05/02 08:52:41;;;;;;;9.18;4.72;;;32.90;58.10;;;;;;5096990;28;20028;-68
2022/05/02 08:55:45;;;;;;;8.75;5.43;;;31.40;58.00;;;;;;5098350;28;20020;-68
2022/05/02 08:58:29;;;;;;;6.32;4.80;;;30.60;59.10;;;;;;5099154;28;20016;-65
2022/05/02 09:01:32;;;;;;;7.70;4.30;;;30.40;59.40;;;;;;5080015;28;20024;-66
2022/05/02 09:04:31;;;;;;;7.03;4.18;;;30.40;59.10;;;;;;5078751;28;20016;-65
2022/05/02 09:07:09;;;;;;;7.60;4.68;;;30.30;59.30;;;;;;5078594;28;20027;-68
2022/05/02 09:10:09;;;;;;;11.05;4.50;;;29.30;59.80;;;;;;5079085;28;20038;-68
2022/05/02 09:12:46;;;;;;;9.00;5.57;;;29.60;60.30;;;;;;5096763;28;20016;-69
2022/05/02 09:15:15;;;;;;;7.35;5.55;;;29.10;60.60;;;;;;5078877;28;20091;-68
2022/05/02 09:17:58;;;;;;;7.72;4.90;;;27.60;63.20;;;;;;5079016;28;20028;-68
2022/05/02 09:20:24;;;;;;;8.25;5.30;;;27.20;65.30;;;;;;5078450;28;20059;-66
2022/05/02 09:23:04;;;;;;;9.85;4.90;;;27.10;65.70;;;;;;5079023;28;20055;-65
2022/05/02 09:26:04;;;;;;;8.82;5.60;;;27.60;64.60;;;;;;5079563;28;20024;-65
2022/05/02 09:28:46;;;;;;;6.85;4.43;;;27.50;64.70;;;;;;5078333;28;20055;-66
2022/05/02 09:31:28;;;;;;;6.05;5.03;;;27.60;63.90;;;;;;5096752;28;20107;-66
2022/05/02 09:34:19;;;;;;;9.30;4.60;;;27.60;64.30;;;;;;5078306;28;20028;-66
2022/05/02 09:37:00;;;;;;;9.00;4.25;;;28.50;63.80;;;;;;5096268;28;20013;-66
2022/05/02 09:39:48;;;;;;;6.88;4.40;;;29.90;62.40;;;;;;5096219;28;20150;-66
2022/05/02 09:42:39;;;;;;;7.57;4.15;;;29.40;61.20;;;;;;5063137;28;20030;-67
2022/05/02 09:51:13;;;;;;;6.53;4.80;;;30.30;61.00;;;;;;5095902;28;20074;-66
2022/05/02 09:56:37;;;;;;;9.60;5.18;;;31.00;59.80;;;;;;5095658;28;20040;-67
2022/05/02 09:57:02;;;;;;;7.70;4.30;;;31.20;59.40;;;;;;5095689;28;20028;-66
2022/05/02 09:59:30;;;;;;;8.73;4.50;;;30.90;61.80;;;;;;5096201;28;20449;-66
2022/05/02 10:02:05;;;;;;;5.03;3.80;;;30.80;58.80;;;;;;5096478;28;20032;-67
2022/05/02 10:04:49;;;;;;;6.43;4.00;;;31.70;58.80;;;;;;5078400;28;20032;-67
2022/05/02 10:07:20;;;;;;;7.18;4.50;;;32.70;58.50;;;;;;5095946;28;20476;-67
2022/05/02 10:10:03;;;;;;;7.78;4.60;;;32.20;55.80;;;;;;5077814;28;20497;-67
2022/05/02 10:13:14;;;;;;;8.23;4.50;;;31.20;55.30;;;;;;5077964;28;20020;-67
2022/05/02 10:16:04;;;;;;;8.10;4.20;;;31.60;56.20;;;;;;5072569;28;20051;-67
2022/05/02 10:18:50;;;;;;;11.15;3.90;;;32.80;55.80;;;;;;5095595;28;20024;-64
2022/05/02 10:21:32;;;;;;;6.47;4.07;;;33.00;56.40;;;;;;5077149;28;20440;-66
2022/05/02 10:24:23;;;;;;;6.88;4.30;;;32.50;56.90;;;;;;5077246;28;20031;-66
2022/05/02 10:26:48;;;;;;;9.88;5.38;;;31.20;57.40;;;;;;5095243;28;20031;-67
2022/05/02 10:29:36;;;;;;;6.05;4.88;;;29.30;58.70;;;;;;5095289;28;20095;-67
2022/05/02 10:32:10;;;;;;;7.60;5.15;;;28.40;60.20;;;;;;5077219;28;20024;-67
2022/05/02 10:34:38;;;;;;;14.50;3.95;;;27.60;61.70;;;;;;5095083;28;20024;-64
2022/05/02 10:37:07;;;;;;;8.73;5.50;;;27.00;63.50;;;;;;5077476;28;20069;-64
2022/05/02 10:39:44;;;;;;;7.65;5.78;;;26.20;62.40;;;;;;5095017;28;20024;-64
2022/05/02 10:42:14;;;;;;;6.28;4.30;;;25.30;62.10;;;;;;5076849;28;20020;-64
2022/05/02 10:44:45;;;;;;;7.43;4.60;;;25.10;64.10;;;;;;5076763;28;20081;-66
2022/05/02 10:47:14;;;;;;;7.47;5.30;;;25.50;65.00;;;;;;5094924;28;20381;-64
2022/05/02 10:50:15;;;;;;;6.05;4.47;;;25.30;65.20;;;;;;5076755;28;20024;-64
2022/05/02 10:53:08;;;;;;;5.20;4.35;;;24.80;64.50;;;;;;5094727;28;20051;-64
2022/05/02 10:55:39;;;;;;;8.30;4.43;;;25.00;66.80;;;;;;5076951;28;20031;-64
2022/05/02 10:58:34;;;;;;;10.05;5.50;;;25.20;66.00;;;;;;5076608;28;20051;-66
2022/05/02 11:01:14;;;;;;;7.93;4.95;;;25.00;65.80;;;;;;5076397;28;20024;-64
2022/05/02 11:04:02;;;;;;;8.75;5.63;;;24.70;65.60;;;;;;5094632;28;20046;-64
2022/05/02 11:06:43;;;;;;;12.90;5.53;;;24.40;66.60;;;;;;5093968;28;20077;-64
2022/05/02 11:09:20;;;;;;;6.57;5.05;;;23.90;66.80;;;;;;5094740;28;20042;-64
2022/05/02 11:11:49;;;;;;;5.85;4.78;;;23.50;67.60;;;;;;5094178;28;20036;-64
2022/05/02 11:14:26;;;;;;;8.65;5.30;;;23.10;67.10;;;;;;5076276;28;20486;-64
2022/05/02 11:17:10;;;;;;;12.43;5.00;;;22.90;69.50;;;;;;5077217;28;20024;-64
2022/05/02 11:22:41;;;;;;;7.65;4.97;;;22.90;69.10;;;;;;5094090;28;20118;-63
2022/05/02 11:25:17;;;;;;;7.30;4.82;;;22.70;69.80;;;;;;5075790;28;20024;-64
2022/05/02 11:27:52;;;;;;;7.68;4.40;;;22.60;71.20;;;;;;5076834;28;20024;-64
2022/05/02 11:30:27;;;;;;;8.00;4.68;;;22.70;69.80;;;;;;5094721;28;20028;-64
2022/05/02 11:33:10;;;;;;;7.38;4.75;;;23.00;69.40;;;;;;5093933;28;20035;-64
2022/05/02 11:35:36;;;;;;;9.10;4.00;;;23.20;69.20;;;;;;5094379;28;20016;-65
2022/05/02 11:38:38;;;;;;;8.05;4.75;;;23.20;69.10;;;;;;5076305;28;20024;-65
2022/05/02 11:41:06;;;;;;;;;;;22.80;67.60;;;;;;5077310;28;20027;-64
2022/05/02 11:43:36;;;;;;;8.43;4.22;;;22.90;68.80;;;;;;5075845;28;19908;-64
2022/05/02 11:46:24;;;;;;;7.25;4.43;;;22.80;67.50;;;;;;5094058;28;20035;-64
2022/05/02 11:49:17;;;;;;;5.28;3.97;;;22.20;69.50;;;;;;5076546;28;20016;-65
2022/05/02 11:51:46;;;;;;;7.43;4.65;;;22.20;71.30;;;;;;5075467;28;20444;-62
2022/05/02 11:54:39;;;;;;;7.10;4.70;;;22.30;70.50;;;;;;5075672;28;20032;-62
2022/05/02 11:57:25;;;;;;;5.80;4.18;;;22.30;70.10;;;;;;5081125;28;20028;-63
2022/05/02 11:59:54;;;;;;;6.53;4.15;;;22.20;70.90;;;;;;5075969;28;20062;-64
2022/05/02 12:02:38;;;;;;;6.78;4.68;;;22.10;68.90;;;;;;5075437;28;20123;-63
2022/05/02 12:05:27;;;;;;;8.43;4.60;;;21.90;69.40;;;;;;5075520;28;20067;-63
2022/05/02 12:07:53;;;;;;;6.00;4.35;;;22.00;69.40;;;;;;5063012;28;20036;-64
2022/05/02 12:10:20;;;;;;;8.57;4.60;;;22.30;70.60;;;;;;5094047;28;20046;-63
2022/05/02 12:12:51;;;;;;;6.22;4.32;;;22.50;68.90;;;;;;5075432;28;20520;-63
2022/05/02 12:15:18;;;;;;;6.72;4.43;;;22.50;70.50;;;;;;5093534;28;20052;-63
2022/05/02 12:17:56;;;;;;;8.48;4.22;;;22.30;71.60;;;;;;5096594;28;20020;-63
2022/05/02 12:20:29;;;;;;;5.18;4.30;;;21.90;72.50;;;;;;5079626;28;20074;-64
2022/05/02 12:23:07;;;;;;;7.55;4.47;;;21.70;72.00;;;;;;5080321;28;20110;-62
2022/05/02 12:25:34;;;;;;;5.70;4.05;;;21.60;73.30;;;;;;5079469;28;20020;-62
2022/05/02 12:28:03;;;;;;;6.95;4.38;;;21.60;73.80;;;;;;5097675;28;20079;-62
2022/05/02 12:30:31;;;;;;;6.95;4.50;;;21.40;73.80;;;;;;5097740;28;20024;-63
2022/05/02 12:33:00;;;;;;;5.90;4.25;;;21.40;72.60;;;;;;5079340;28;20027;-65
2022/05/02 12:35:36;;;;;;;6.82;4.82;;;21.60;73.30;;;;;;5079637;28;20016;-66
2022/05/02 12:38:16;;;;;;;7.05;4.03;;;21.80;73.30;;;;;;5080052;28;20028;-63
2022/05/02 12:40:49;;;;;;;5.63;3.75;;;22.00;73.20;;;;;;5079588;28;20028;-62
2022/05/02 12:43:32;;;;;;;10.10;4.50;;;22.20;73.70;;;;;;5080182;28;20038;-65
2022/05/02 12:46:06;;;;;;;5.30;4.10;;;22.40;72.00;;;;;;5079042;28;20107;-64
2022/05/02 12:48:39;;;;;;;6.00;4.10;;;22.50;71.20;;;;;;5079153;28;20063;-65
2022/05/02 12:51:07;;;;;;;9.82;4.97;;;22.30;71.30;;;;;;5078837;28;20026;-65
2022/05/02 12:56:18;;;;;;;5.65;4.03;;;22.00;71.70;;;;;;5097358;28;20073;-64
2022/05/02 13:01:48;;;;;;;7.80;4.40;;;21.70;72.20;;;;;;5097497;28;20096;-65
2022/05/02 13:04:16;;;;;;;8.98;4.15;;;21.50;73.20;;;;;;5079486;28;20024;-64
2022/05/02 13:06:43;;;;;;;8.73;3.90;;;21.60;71.70;;;;;;5078634;28;20565;-65
2022/05/02 13:09:14;;;;;;;5.63;4.20;;;21.60;73.60;;;;;;5079562;28;20028;-64
2022/05/02 13:11:40;;;;;;;8.00;3.90;;;21.70;71.80;;;;;;5096877;28;20024;-64
2022/05/02 13:14:08;;;;;;;5.50;3.70;;;21.50;71.30;;;;;;5096624;28;20065;-65
2022/05/02 13:16:44;;;;;;;9.63;3.80;;;21.60;71.50;;;;;;5078440;28;20024;-65
2022/05/02 13:19:11;;;;;;;8.55;4.20;;;21.90;71.00;;;;;;5096787;28;20027;-64
2022/05/02 13:21:37;;;;;;;6.70;4.30;;;21.90;70.00;;;;;;5096679;28;20035;-63
2022/05/02 13:24:07;;;;;;;6.95;4.30;;;21.80;70.00;;;;;;5096422;28;20028;-66
2022/05/02 13:26:37;;;;;;;8.13;4.63;;;21.70;70.60;;;;;;5078486;28;20473;-65
2022/05/02 13:29:47;;;;;;;4.43;3.30;;;21.70;69.90;;;;;;5095965;28;20057;-67
2022/05/02 13:32:25;;;;;;;6.15;4.32;;;21.80;70.40;;;;;;5060696;28;20044;-66
2022/05/02 13:35:10;;;;;;;7.72;4.30;;;21.80;70.30;;;;;;5096301;28;20122;-63
2022/05/02 13:37:53;;;;;;;4.45;3.45;;;21.80;69.10;;;;;;5079184;28;20020;-68
2022/05/02 13:40:21;;;;;;;9.23;4.30;;;22.00;69.70;;;;;;5097010;28;20032;-66
2022/05/02 13:42:59;;;;;;;6.03;4.20;;;22.00;70.80;;;;;;5096660;28;20020;-66
2022/05/02 13:49:06;;;;;;;;;;;21.70;71.70;;;;;;5097057;28;20024;-67
2022/05/02 13:51:34;;;;;;;4.93;3.47;;;21.90;73.80;;;;;;5096235;28;19912;-65
2022/05/02 13:54:12;;;;;;;4.85;3.05;;;22.10;70.60;;;;;;5095826;28;20091;-65
2022/05/02 13:56:56;;;;;;;7.65;3.95;;;22.30;70.60;;;;;;5095984;28;20028;-65